sensor_id;sensor_type;location;lat;lon;timestamp;pressure;altitude;pressure_sealevel;temperature;humidity
71299;BME280;59083;47.974;21.722;2023-03-20T00:00:34;100593.47;;;8.08;62.32
71299;BME280;59083;47.974;21.722;2023-03-20T00:03:37;100588.66;;;8.11;62.54
71299;BME280;59083;47.974;21.722;2023-03-20T00:06:38;100596.09;;;8.16;62.61
71299;BME280;59083;47.974;21.722;2023-03-20T00:09:39;100585.19;;;8.19;61.85
71299;BME280;59083;47.974;21.722;2023-03-20T00:12:40;100586.50;;;8.23;62.68
71299;BME280;59083;47.974;21.722;2023-03-20T00:15:42;100582.00;;;8.23;62.75
71299;BME280;59083;47.974;21.722;2023-03-20T00:18:43;100574.56;;;8.19;64.08
71299;BME280;59083;47.974;21.722;2023-03-20T00:21:46;100573.06;;;8.16;64.23
71299;BME280;59083;47.974;21.722;2023-03-20T00:24:47;100575.72;;;8.16;63.85
71299;BME280;59083;47.974;21.722;2023-03-20T00:27:49;100571.22;;;8.17;63.95
71299;BME280;59083;47.974;21.722;2023-03-20T00:30:51;100570.22;;;8.10;65.07
71299;BME280;59083;47.974;21.722;2023-03-20T00:33:55;100565.91;;;8.09;64.98
71299;BME280;59083;47.974;21.722;2023-03-20T00:36:57;100561.28;;;8.11;65.74
71299;BME280;59083;47.974;21.722;2023-03-20T00:39:58;100564.91;;;8.10;67.27
71299;BME280;59083;47.974;21.722;2023-03-20T00:43:01;100553.16;;;8.12;66.01
71299;BME280;59083;47.974;21.722;2023-03-20T00:46:05;100554.00;;;8.13;65.89
71299;BME280;59083;47.974;21.722;2023-03-20T00:49:11;100557.28;;;8.15;64.87
71299;BME280;59083;47.974;21.722;2023-03-20T00:52:12;100556.13;;;8.17;63.91
71299;BME280;59083;47.974;21.722;2023-03-20T00:55:17;100546.34;;;8.18;64.09
71299;BME280;59083;47.974;21.722;2023-03-20T00:58:18;100550.00;;;8.17;64.67
71299;BME280;59083;47.974;21.722;2023-03-20T01:01:20;100556.63;;;8.21;64.34
71299;BME280;59083;47.974;21.722;2023-03-20T01:04:21;100544.00;;;8.23;64.19
71299;BME280;59083;47.974;21.722;2023-03-20T01:07:23;100538.72;;;8.23;64.35
71299;BME280;59083;47.974;21.722;2023-03-20T01:10:29;100540.69;;;8.21;64.87
71299;BME280;59083;47.974;21.722;2023-03-20T01:13:32;100540.53;;;8.22;64.66
71299;BME280;59083;47.974;21.722;2023-03-20T01:16:33;100542.03;;;8.25;63.95
71299;BME280;59083;47.974;21.722;2023-03-20T01:19:34;100538.72;;;8.23;64.63
71299;BME280;59083;47.974;21.722;2023-03-20T01:22:36;100537.56;;;8.17;65.60
71299;BME280;59083;47.974;21.722;2023-03-20T01:25:38;100535.37;;;8.21;65.59
71299;BME280;59083;47.974;21.722;2023-03-20T01:28:39;100532.75;;;8.13;66.42
71299;BME280;59083;47.974;21.722;2023-03-20T01:31:41;100528.44;;;8.04;65.71
71299;BME280;59083;47.974;21.722;2023-03-20T01:34:42;100528.44;;;8.04;64.50
71299;BME280;59083;47.974;21.722;2023-03-20T01:37:44;100525.47;;;8.07;63.69
71299;BME280;59083;47.974;21.722;2023-03-20T01:41:05;100525.31;;;8.08;61.60
71299;BME280;59083;47.974;21.722;2023-03-20T01:44:27;100532.44;;;8.08;61.91
71299;BME280;59083;47.974;21.722;2023-03-20T01:47:28;100532.75;;;8.13;61.79
71299;BME280;59083;47.974;21.722;2023-03-20T01:50:31;100533.91;;;8.10;62.46
71299;BME280;59083;47.974;21.722;2023-03-20T01:53:33;100537.06;;;8.06;63.30
71299;BME280;59083;47.974;21.722;2023-03-20T01:56:38;100521.16;;;8.06;62.91
71299;BME280;59083;47.974;21.722;2023-03-20T01:59:50;100517.81;;;8.04;62.88
71299;BME280;59083;47.974;21.722;2023-03-20T02:02:54;100518.16;;;8.01;63.11
71299;BME280;59083;47.974;21.722;2023-03-20T02:05:58;100527.47;;;7.97;63.09
71299;BME280;59083;47.974;21.722;2023-03-20T02:09:00;100523.97;;;7.88;63.78
71299;BME280;59083;47.974;21.722;2023-03-20T02:12:04;100528.44;;;7.87;63.80
71299;BME280;59083;47.974;21.722;2023-03-20T02:15:06;100525.81;;;7.79;63.44
71299;BME280;59083;47.974;21.722;2023-03-20T02:18:10;100527.12;;;7.75;63.71
71299;BME280;59083;47.974;21.722;2023-03-20T02:31:46;100533.41;;;7.58;63.50
71299;BME280;59083;47.974;21.722;2023-03-20T02:35:34;100535.41;;;7.56;63.39
71299;BME280;59083;47.974;21.722;2023-03-20T02:41:53;100525.94;;;7.54;62.58
71299;BME280;59083;47.974;21.722;2023-03-20T02:58:41;100526.41;;;7.41;61.34
71299;BME280;59083;47.974;21.722;2023-03-20T03:02:14;100529.91;;;7.33;61.67
71299;BME280;59083;47.974;21.722;2023-03-20T03:05:22;100531.38;;;7.28;62.31
71299;BME280;59083;47.974;21.722;2023-03-20T03:08:30;100530.38;;;7.21;63.31
71299;BME280;59083;47.974;21.722;2023-03-20T03:11:37;100528.53;;;7.13;63.14
71299;BME280;59083;47.974;21.722;2023-03-20T03:15:00;100530.03;;;7.24;61.90
71299;BME280;59083;47.974;21.722;2023-03-20T03:18:05;100524.44;;;7.27;62.28
71299;BME280;59083;47.974;21.722;2023-03-20T03:21:08;100521.94;;;7.25;61.58
71299;BME280;59083;47.974;21.722;2023-03-20T03:24:28;100520.09;;;7.26;61.99
71299;BME280;59083;47.974;21.722;2023-03-20T03:27:36;100514.13;;;7.24;61.30
71299;BME280;59083;47.974;21.722;2023-03-20T03:30:38;100511.78;;;7.13;61.82
71299;BME280;59083;47.974;21.722;2023-03-20T03:33:42;100517.44;;;7.10;61.77
71299;BME280;59083;47.974;21.722;2023-03-20T03:37:08;100516.44;;;7.11;62.35
71299;BME280;59083;47.974;21.722;2023-03-20T03:40:32;100528.84;;;7.10;62.38
71299;BME280;59083;47.974;21.722;2023-03-20T03:43:41;100524.38;;;7.11;62.02
71299;BME280;59083;47.974;21.722;2023-03-20T03:46:55;100526.06;;;7.12;61.59
71299;BME280;59083;47.974;21.722;2023-03-20T03:50:02;100523.22;;;7.13;61.58
71299;BME280;59083;47.974;21.722;2023-03-20T03:53:09;100522.09;;;7.16;60.71
71299;BME280;59083;47.974;21.722;2023-03-20T03:56:13;100528.72;;;7.20;59.73
71299;BME280;59083;47.974;21.722;2023-03-20T03:59:22;100523.75;;;7.17;59.94
71299;BME280;59083;47.974;21.722;2023-03-20T04:02:26;100524.03;;;7.05;60.24
71299;BME280;59083;47.974;21.722;2023-03-20T04:05:31;100522.38;;;7.13;60.43
71299;BME280;59083;47.974;21.722;2023-03-20T04:08:33;100513.75;;;7.02;60.64
71299;BME280;59083;47.974;21.722;2023-03-20T04:11:34;100527.19;;;7.09;61.31
71299;BME280;59083;47.974;21.722;2023-03-20T04:14:36;100516.59;;;7.09;61.91
71299;BME280;59083;47.974;21.722;2023-03-20T04:17:38;100520.22;;;7.08;61.86
71299;BME280;59083;47.974;21.722;2023-03-20T04:20:40;100519.41;;;7.07;61.99
71299;BME280;59083;47.974;21.722;2023-03-20T04:23:42;100504.16;;;7.01;62.33
71299;BME280;59083;47.974;21.722;2023-03-20T04:26:43;100507.13;;;7.06;61.06
71299;BME280;59083;47.974;21.722;2023-03-20T04:29:45;100517.91;;;7.05;61.15
71299;BME280;59083;47.974;21.722;2023-03-20T04:32:47;100516.22;;;6.96;61.68
71299;BME280;59083;47.974;21.722;2023-03-20T04:35:49;100519.22;;;7.01;60.74
71299;BME280;59083;47.974;21.722;2023-03-20T04:38:50;100521.00;;;6.92;60.87
71299;BME280;59083;47.974;21.722;2023-03-20T04:41:52;100517.50;;;6.84;61.62
71299;BME280;59083;47.974;21.722;2023-03-20T04:44:53;100516.69;;;6.83;61.53
71299;BME280;59083;47.974;21.722;2023-03-20T04:47:55;100522.97;;;6.82;61.20
71299;BME280;59083;47.974;21.722;2023-03-20T04:50:57;100526.75;;;6.80;61.47
71299;BME280;59083;47.974;21.722;2023-03-20T04:53:59;100526.75;;;6.80;61.85
71299;BME280;59083;47.974;21.722;2023-03-20T04:57:00;100530.28;;;6.88;62.26
71299;BME280;59083;47.974;21.722;2023-03-20T05:00:03;100538.56;;;6.93;62.34
71299;BME280;59083;47.974;21.722;2023-03-20T05:03:05;100537.09;;;6.99;62.66
71299;BME280;59083;47.974;21.722;2023-03-20T05:06:06;100535.63;;;7.04;61.93
71299;BME280;59083;47.974;21.722;2023-03-20T05:09:08;100538.63;;;7.10;61.22
71299;BME280;59083;47.974;21.722;2023-03-20T05:12:10;100541.28;;;7.10;61.56
71299;BME280;59083;47.974;21.722;2023-03-20T05:15:12;100537.31;;;7.14;61.21
71299;BME280;59083;47.974;21.722;2023-03-20T05:18:14;100535.97;;;7.18;61.69
71299;BME280;59083;47.974;21.722;2023-03-20T05:21:15;100535.81;;;7.19;61.19
71299;BME280;59083;47.974;21.722;2023-03-20T05:24:17;100544.31;;;7.23;59.93
71299;BME280;59083;47.974;21.722;2023-03-20T05:27:18;100542.31;;;7.25;60.21
71299;BME280;59083;47.974;21.722;2023-03-20T05:30:20;100534.03;;;7.28;60.28
71299;BME280;59083;47.974;21.722;2023-03-20T05:33:22;100532.72;;;7.32;61.16
71299;BME280;59083;47.974;21.722;2023-03-20T05:36:23;100535.37;;;7.32;60.41
71299;BME280;59083;47.974;21.722;2023-03-20T05:39:25;100536.03;;;7.34;60.22
71299;BME280;59083;47.974;21.722;2023-03-20T05:42:26;100544.00;;;7.42;60.16
71299;BME280;59083;47.974;21.722;2023-03-20T05:45:28;100536.06;;;7.50;59.93
71299;BME280;59083;47.974;21.722;2023-03-20T05:48:29;100541.03;;;7.53;60.01
71299;BME280;59083;47.974;21.722;2023-03-20T05:51:31;100540.38;;;7.59;59.57
71299;BME280;59083;47.974;21.722;2023-03-20T05:54:33;100536.06;;;7.66;59.45
71299;BME280;59083;47.974;21.722;2023-03-20T05:57:34;100530.12;;;7.72;59.62
71299;BME280;59083;47.974;21.722;2023-03-20T06:00:37;100540.88;;;7.87;59.48
71299;BME280;59083;47.974;21.722;2023-03-20T06:03:43;100537.56;;;7.93;59.17
71299;BME280;59083;47.974;21.722;2023-03-20T06:06:46;100535.41;;;8.05;58.86
71299;BME280;59083;47.974;21.722;2023-03-20T06:10:11;100541.34;;;8.15;58.36
71299;BME280;59083;47.974;21.722;2023-03-20T06:13:25;100540.06;;;8.19;58.24
71299;BME280;59083;47.974;21.722;2023-03-20T06:16:36;100540.00;;;8.27;58.12
71299;BME280;59083;47.974;21.722;2023-03-20T06:19:39;100546.69;;;8.31;58.06
71299;BME280;59083;47.974;21.722;2023-03-20T06:22:42;100541.03;;;8.42;57.70
71299;BME280;59083;47.974;21.722;2023-03-20T06:25:43;100547.31;;;8.49;57.96
71299;BME280;59083;47.974;21.722;2023-03-20T06:28:45;100541.47;;;8.62;56.99
71299;BME280;59083;47.974;21.722;2023-03-20T06:31:47;100539.63;;;8.70;57.15
71299;BME280;59083;47.974;21.722;2023-03-20T06:34:49;100551.53;;;8.83;56.91
71299;BME280;59083;47.974;21.722;2023-03-20T06:37:51;100545.84;;;8.94;56.59
71299;BME280;59083;47.974;21.722;2023-03-20T06:40:52;100547.09;;;9.06;55.95
71299;BME280;59083;47.974;21.722;2023-03-20T06:43:54;100543.72;;;9.20;56.03
71299;BME280;59083;47.974;21.722;2023-03-20T06:46:56;100550.09;;;9.11;56.46
71299;BME280;59083;47.974;21.722;2023-03-20T06:49:57;100548.47;;;9.33;56.17
71299;BME280;59083;47.974;21.722;2023-03-20T06:52:58;100550.59;;;9.37;56.57
71299;BME280;59083;47.974;21.722;2023-03-20T06:56:04;100547.09;;;9.37;56.97
71299;BME280;59083;47.974;21.722;2023-03-20T06:59:06;100556.19;;;9.50;57.14
71299;BME280;59083;47.974;21.722;2023-03-20T07:02:10;100559.84;;;9.49;57.64
71299;BME280;59083;47.974;21.722;2023-03-20T07:05:12;100565.75;;;9.60;57.96
71299;BME280;59083;47.974;21.722;2023-03-20T07:08:13;100560.06;;;9.63;59.61
71299;BME280;59083;47.974;21.722;2023-03-20T07:11:15;100558.19;;;9.71;58.83
71299;BME280;59083;47.974;21.722;2023-03-20T07:14:16;100556.53;;;9.70;58.82
71299;BME280;59083;47.974;21.722;2023-03-20T07:17:18;100557.34;;;9.71;59.30
71299;BME280;59083;47.974;21.722;2023-03-20T07:20:20;100572.25;;;9.80;59.51
71299;BME280;59083;47.974;21.722;2023-03-20T07:23:22;100561.25;;;9.83;59.78
71299;BME280;59083;47.974;21.722;2023-03-20T07:26:23;100559.25;;;9.85;59.00
71299;BME280;59083;47.974;21.722;2023-03-20T07:29:24;100553.78;;;10.01;59.00
71299;BME280;59083;47.974;21.722;2023-03-20T07:32:26;100549.00;;;10.19;58.17
71299;BME280;59083;47.974;21.722;2023-03-20T07:35:28;100546.53;;;10.32;57.59
71299;BME280;59083;47.974;21.722;2023-03-20T07:38:30;100549.13;;;10.41;57.32
71299;BME280;59083;47.974;21.722;2023-03-20T07:41:35;100549.50;;;10.67;57.28
71299;BME280;59083;47.974;21.722;2023-03-20T07:44:37;100550.78;;;10.86;56.43
71299;BME280;59083;47.974;21.722;2023-03-20T07:47:42;100552.25;;;10.88;56.01
71299;BME280;59083;47.974;21.722;2023-03-20T07:50:45;100552.34;;;10.95;56.24
71299;BME280;59083;47.974;21.722;2023-03-20T07:53:47;100552.09;;;10.75;57.76
71299;BME280;59083;47.974;21.722;2023-03-20T07:56:49;100562.47;;;10.85;57.24
71299;BME280;59083;47.974;21.722;2023-03-20T07:59:51;100564.56;;;10.89;56.85
71299;BME280;59083;47.974;21.722;2023-03-20T08:02:53;100554.56;;;10.91;56.42
71299;BME280;59083;47.974;21.722;2023-03-20T08:05:58;100564.09;;;11.15;56.70
71299;BME280;59083;47.974;21.722;2023-03-20T08:09:01;100567.59;;;11.01;56.87
71299;BME280;59083;47.974;21.722;2023-03-20T08:12:04;100569.69;;;11.05;56.61
71299;BME280;59083;47.974;21.722;2023-03-20T08:15:06;100568.47;;;11.23;56.46
71299;BME280;59083;47.974;21.722;2023-03-20T08:18:10;100551.38;;;11.32;56.12
71299;BME280;59083;47.974;21.722;2023-03-20T08:21:13;100563.88;;;11.67;55.42
71299;BME280;59083;47.974;21.722;2023-03-20T08:24:14;100573.91;;;11.86;54.91
71299;BME280;59083;47.974;21.722;2023-03-20T08:27:16;100561.34;;;12.02;54.53
71299;BME280;59083;47.974;21.722;2023-03-20T08:30:18;100555.72;;;12.18;53.69
71299;BME280;59083;47.974;21.722;2023-03-20T08:33:20;100569.41;;;12.36;53.10
71299;BME280;59083;47.974;21.722;2023-03-20T08:36:23;100546.88;;;12.45;52.98
71299;BME280;59083;47.974;21.722;2023-03-20T08:39:28;100567.75;;;12.63;52.47
71299;BME280;59083;47.974;21.722;2023-03-20T08:42:34;100559.16;;;12.67;52.32
71299;BME280;59083;47.974;21.722;2023-03-20T08:45:35;100572.66;;;12.94;50.92
71299;BME280;59083;47.974;21.722;2023-03-20T08:48:36;100577.31;;;13.13;50.38
71299;BME280;59083;47.974;21.722;2023-03-20T08:51:37;100576.75;;;13.24;49.56
71299;BME280;59083;47.974;21.722;2023-03-20T08:54:39;100583.53;;;13.20;48.07
71299;BME280;59083;47.974;21.722;2023-03-20T08:57:41;100574.06;;;13.24;47.86
71299;BME280;59083;47.974;21.722;2023-03-20T09:00:42;100573.03;;;13.25;48.49
71299;BME280;59083;47.974;21.722;2023-03-20T09:03:44;100566.69;;;13.39;47.56
71299;BME280;59083;47.974;21.722;2023-03-20T09:06:46;100572.06;;;13.39;47.39
71299;BME280;59083;47.974;21.722;2023-03-20T09:09:47;100572.94;;;13.59;46.73
71299;BME280;59083;47.974;21.722;2023-03-20T09:12:49;100564.91;;;13.59;46.53
71299;BME280;59083;47.974;21.722;2023-03-20T09:15:51;100563.06;;;13.73;47.11
71299;BME280;59083;47.974;21.722;2023-03-20T09:18:53;100562.47;;;13.91;46.95
71299;BME280;59083;47.974;21.722;2023-03-20T09:21:54;100568.50;;;13.99;46.18
71299;BME280;59083;47.974;21.722;2023-03-20T09:24:56;100564.38;;;14.10;46.78
71299;BME280;59083;47.974;21.722;2023-03-20T09:27:58;100566.44;;;14.21;45.57
71299;BME280;59083;47.974;21.722;2023-03-20T09:30:59;100559.81;;;14.30;45.53
71299;BME280;59083;47.974;21.722;2023-03-20T09:34:01;100563.13;;;14.32;45.52
71299;BME280;59083;47.974;21.722;2023-03-20T09:37:02;100538.81;;;14.01;45.34
71299;BME280;59083;47.974;21.722;2023-03-20T09:40:05;100567.25;;;14.55;44.98
71299;BME280;59083;47.974;21.722;2023-03-20T09:43:28;100547.03;;;14.19;45.51
71299;BME280;59083;47.974;21.722;2023-03-20T09:50:11;100553.22;;;14.33;45.16
71299;BME280;59083;47.974;21.722;2023-03-20T09:53:41;100538.81;;;14.40;44.67
71299;BME280;59083;47.974;21.722;2023-03-20T09:56:44;100557.78;;;14.45;45.08
71299;BME280;59083;47.974;21.722;2023-03-20T09:59:46;100551.59;;;14.52;45.26
71299;BME280;59083;47.974;21.722;2023-03-20T10:06:16;100538.31;;;14.70;44.10
71299;BME280;59083;47.974;21.722;2023-03-20T10:09:26;100537.88;;;14.86;43.83
71299;BME280;59083;47.974;21.722;2023-03-20T10:15:40;100534.56;;;14.97;43.60
71299;BME280;59083;47.974;21.722;2023-03-20T10:22:11;100531.03;;;15.03;42.90
71299;BME280;59083;47.974;21.722;2023-03-20T10:25:30;100540.88;;;15.09;42.45
71299;BME280;59083;47.974;21.722;2023-03-20T10:31:45;100523.38;;;15.38;41.68
71299;BME280;59083;47.974;21.722;2023-03-20T10:34:58;100520.66;;;15.45;42.12
71299;BME280;59083;47.974;21.722;2023-03-20T10:38:11;100512.06;;;15.36;40.04
71299;BME280;59083;47.974;21.722;2023-03-20T10:41:25;100518.16;;;15.50;40.27
71299;BME280;59083;47.974;21.722;2023-03-20T10:44:34;100516.03;;;15.65;40.66
71299;BME280;59083;47.974;21.722;2023-03-20T10:47:39;100516.38;;;15.75;40.11
71299;BME280;59083;47.974;21.722;2023-03-20T10:50:46;100511.03;;;15.68;40.92
71299;BME280;59083;47.974;21.722;2023-03-20T10:53:55;100503.72;;;15.82;41.52
71299;BME280;59083;47.974;21.722;2023-03-20T10:57:02;100500.31;;;15.93;40.51
71299;BME280;59083;47.974;21.722;2023-03-20T11:00:04;100486.22;;;15.98;40.47
71299;BME280;59083;47.974;21.722;2023-03-20T11:03:24;100497.63;;;15.93;40.30
71299;BME280;59083;47.974;21.722;2023-03-20T11:06:28;100488.84;;;16.04;39.66
71299;BME280;59083;47.974;21.722;2023-03-20T11:09:32;100486.75;;;16.06;39.50
71299;BME280;59083;47.974;21.722;2023-03-20T11:12:45;100486.38;;;16.03;39.67
71299;BME280;59083;47.974;21.722;2023-03-20T11:15:46;100483.03;;;16.07;38.78
71299;BME280;59083;47.974;21.722;2023-03-20T11:18:49;100477.06;;;16.05;39.36
71299;BME280;59083;47.974;21.722;2023-03-20T11:21:53;100468.13;;;15.87;39.28
71299;BME280;59083;47.974;21.722;2023-03-20T11:25:00;100471.94;;;15.97;39.62
71299;BME280;59083;47.974;21.722;2023-03-20T11:34:32;100473.91;;;16.08;39.66
71299;BME280;59083;47.974;21.722;2023-03-20T11:37:42;100466.00;;;16.13;39.43
71299;BME280;59083;47.974;21.722;2023-03-20T11:40:45;100459.81;;;16.13;39.56
71299;BME280;59083;47.974;21.722;2023-03-20T11:43:52;100446.84;;;16.28;39.68
71299;BME280;59083;47.974;21.722;2023-03-20T11:47:10;100441.97;;;16.19;39.20
71299;BME280;59083;47.974;21.722;2023-03-20T11:50:36;100440.78;;;16.33;38.97
71299;BME280;59083;47.974;21.722;2023-03-20T11:53:39;100435.09;;;16.41;38.74
71299;BME280;59083;47.974;21.722;2023-03-20T11:56:51;100434.44;;;16.45;39.14
71299;BME280;59083;47.974;21.722;2023-03-20T11:59:54;100433.69;;;16.57;38.40
71299;BME280;59083;47.974;21.722;2023-03-20T12:02:56;100423.75;;;16.57;38.70
71299;BME280;59083;47.974;21.722;2023-03-20T12:06:00;100426.00;;;16.60;38.25
71299;BME280;59083;47.974;21.722;2023-03-20T12:15:37;100408.06;;;16.72;37.91
71299;BME280;59083;47.974;21.722;2023-03-20T12:18:44;100402.53;;;16.67;38.09
71299;BME280;59083;47.974;21.722;2023-03-20T12:21:58;100398.19;;;16.66;38.50
71299;BME280;59083;47.974;21.722;2023-03-20T12:31:31;100398.53;;;16.88;37.89
71299;BME280;59083;47.974;21.722;2023-03-20T12:37:39;100388.47;;;16.65;38.02
71299;BME280;59083;47.974;21.722;2023-03-20T12:40:41;100388.31;;;16.78;38.63
71299;BME280;59083;47.974;21.722;2023-03-20T12:50:25;100370.62;;;17.12;37.62
71299;BME280;59083;47.974;21.722;2023-03-20T12:56:46;100371.22;;;17.26;38.14
71299;BME280;59083;47.974;21.722;2023-03-20T13:00:23;100365.41;;;17.41;38.23
71299;BME280;59083;47.974;21.722;2023-03-20T13:10:52;100364.00;;;17.50;38.60
71299;BME280;59083;47.974;21.722;2023-03-20T13:14:10;100354.31;;;17.60;38.04
71299;BME280;59083;47.974;21.722;2023-03-20T13:20:49;100355.97;;;17.61;37.92
71299;BME280;59083;47.974;21.722;2023-03-20T13:30:27;100343.25;;;17.27;38.12
71299;BME280;59083;47.974;21.722;2023-03-20T13:37:00;100339.38;;;17.11;38.76
71299;BME280;59083;47.974;21.722;2023-03-20T13:40:21;100337.00;;;17.03;38.80
71299;BME280;59083;47.974;21.722;2023-03-20T13:43:38;100332.31;;;16.99;38.23
71299;BME280;59083;47.974;21.722;2023-03-20T13:46:50;100323.69;;;17.08;38.33
71299;BME280;59083;47.974;21.722;2023-03-20T13:50:31;100323.53;;;17.03;38.62
71299;BME280;59083;47.974;21.722;2023-03-20T13:57:25;100321.31;;;17.00;38.75
71299;BME280;59083;47.974;21.722;2023-03-20T14:00:44;100324.22;;;16.99;39.03
71299;BME280;59083;47.974;21.722;2023-03-20T14:03:48;100323.19;;;17.00;39.22
71299;BME280;59083;47.974;21.722;2023-03-20T14:06:55;100337.56;;;16.93;39.61
71299;BME280;59083;47.974;21.722;2023-03-20T14:09:57;100324.69;;;16.96;40.77
71299;BME280;59083;47.974;21.722;2023-03-20T14:13:18;100321.53;;;16.99;40.79
71299;BME280;59083;47.974;21.722;2023-03-20T14:16:20;100316.16;;;16.99;40.40
71299;BME280;59083;47.974;21.722;2023-03-20T14:19:24;100315.31;;;16.98;40.69
71299;BME280;59083;47.974;21.722;2023-03-20T14:22:28;100311.81;;;16.98;40.05
71299;BME280;59083;47.974;21.722;2023-03-20T14:25:40;100313.47;;;16.99;40.85
71299;BME280;59083;47.974;21.722;2023-03-20T14:32:22;100316.41;;;16.97;41.37
71299;BME280;59083;47.974;21.722;2023-03-20T14:35:35;100317.66;;;16.94;42.30
71299;BME280;59083;47.974;21.722;2023-03-20T14:39:04;100320.22;;;16.89;42.24
71299;BME280;59083;47.974;21.722;2023-03-20T14:42:32;100316.94;;;16.87;43.11
71299;BME280;59083;47.974;21.722;2023-03-20T14:46:23;100326.97;;;16.80;41.68
71299;BME280;59083;47.974;21.722;2023-03-20T14:56:10;100325.53;;;16.48;41.27
71299;BME280;59083;47.974;21.722;2023-03-20T14:59:14;100318.84;;;16.39;41.90
71299;BME280;59083;47.974;21.722;2023-03-20T15:02:33;100323.47;;;16.32;42.01
71299;BME280;59083;47.974;21.722;2023-03-20T15:05:38;100303.62;;;16.15;42.37
71299;BME280;59083;47.974;21.722;2023-03-20T15:09:07;100318.25;;;16.19;41.97
71299;BME280;59083;47.974;21.722;2023-03-20T15:12:12;100328.66;;;16.15;42.09
71299;BME280;59083;47.974;21.722;2023-03-20T15:15:27;100338.59;;;16.15;41.80
71299;BME280;59083;47.974;21.722;2023-03-20T15:18:28;100322.16;;;16.04;42.11
71299;BME280;59083;47.974;21.722;2023-03-20T15:21:38;100323.41;;;16.02;42.36
71299;BME280;59083;47.974;21.722;2023-03-20T15:24:40;100320.66;;;15.90;42.48
71299;BME280;59083;47.974;21.722;2023-03-20T15:27:42;100320.66;;;15.90;42.94
71299;BME280;59083;47.974;21.722;2023-03-20T15:30:45;100329.03;;;15.82;42.68
71299;BME280;59083;47.974;21.722;2023-03-20T15:33:48;100325.37;;;15.77;42.42
71299;BME280;59083;47.974;21.722;2023-03-20T15:36:49;100326.00;;;15.72;42.62
71299;BME280;59083;47.974;21.722;2023-03-20T15:39:53;100321.31;;;15.67;42.87
71299;BME280;59083;47.974;21.722;2023-03-20T15:43:03;100312.69;;;15.65;43.24
71299;BME280;59083;47.974;21.722;2023-03-20T15:46:06;100328.03;;;15.58;43.80
71299;BME280;59083;47.974;21.722;2023-03-20T15:49:07;100324.75;;;15.50;44.04
71299;BME280;59083;47.974;21.722;2023-03-20T15:55:26;100329.81;;;15.40;44.38
71299;BME280;59083;47.974;21.722;2023-03-20T15:58:28;100330.28;;;15.37;44.58
71299;BME280;59083;47.974;21.722;2023-03-20T16:01:32;100322.41;;;15.35;44.57
71299;BME280;59083;47.974;21.722;2023-03-20T16:04:34;100331.56;;;15.27;44.85
71299;BME280;59083;47.974;21.722;2023-03-20T16:07:35;100329.16;;;15.19;45.05
71299;BME280;59083;47.974;21.722;2023-03-20T16:10:41;100340.78;;;15.13;45.31
71299;BME280;59083;47.974;21.722;2023-03-20T16:13:45;100337.09;;;15.08;45.57
71299;BME280;59083;47.974;21.722;2023-03-20T16:16:49;100332.59;;;15.02;46.10
71299;BME280;59083;47.974;21.722;2023-03-20T16:19:52;100332.44;;;14.97;46.04
71299;BME280;59083;47.974;21.722;2023-03-20T16:22:58;100328.16;;;14.89;46.09
71299;BME280;59083;47.974;21.722;2023-03-20T16:26:03;100342.03;;;14.79;46.53
71299;BME280;59083;47.974;21.722;2023-03-20T16:29:06;100338.94;;;14.76;46.43
71299;BME280;59083;47.974;21.722;2023-03-20T16:32:21;100342.94;;;14.67;46.72
71299;BME280;59083;47.974;21.722;2023-03-20T16:35:37;100347.50;;;14.60;46.94
71299;BME280;59083;47.974;21.722;2023-03-20T16:38:39;100348.19;;;14.48;47.45
71299;BME280;59083;47.974;21.722;2023-03-20T16:42:00;100357.69;;;14.44;47.28
71299;BME280;59083;47.974;21.722;2023-03-20T16:45:05;100346.16;;;14.37;47.36
71299;BME280;59083;47.974;21.722;2023-03-20T16:51:22;100354.00;;;14.39;46.87
71299;BME280;59083;47.974;21.722;2023-03-20T16:54:26;100357.72;;;14.31;47.04
71299;BME280;59083;47.974;21.722;2023-03-20T16:57:34;100357.75;;;14.18;47.30
71299;BME280;59083;47.974;21.722;2023-03-20T17:00:50;100361.53;;;14.04;48.02
71299;BME280;59083;47.974;21.722;2023-03-20T17:03:55;100368.56;;;13.92;48.36
71299;BME280;59083;47.974;21.722;2023-03-20T17:06:59;100365.87;;;13.79;48.77
71299;BME280;59083;47.974;21.722;2023-03-20T17:10:18;100366.13;;;13.71;49.06
71299;BME280;59083;47.974;21.722;2023-03-20T17:13:20;100360.97;;;13.62;49.54
71299;BME280;59083;47.974;21.722;2023-03-20T17:16:23;100380.53;;;13.56;49.51
71299;BME280;59083;47.974;21.722;2023-03-20T17:19:26;100374.41;;;13.49;49.93
71299;BME280;59083;47.974;21.722;2023-03-20T17:22:27;100383.44;;;13.35;50.21
71299;BME280;59083;47.974;21.722;2023-03-20T17:25:30;100378.06;;;13.22;50.63
71299;BME280;59083;47.974;21.722;2023-03-20T17:28:34;100375.59;;;13.14;51.54
71299;BME280;59083;47.974;21.722;2023-03-20T17:31:37;100371.84;;;13.02;51.77
71299;BME280;59083;47.974;21.722;2023-03-20T17:34:38;100386.47;;;12.93;51.81
71299;BME280;59083;47.974;21.722;2023-03-20T17:37:40;100385.81;;;12.91;51.94
71299;BME280;59083;47.974;21.722;2023-03-20T17:40:41;100388.88;;;12.88;52.04
71299;BME280;59083;47.974;21.722;2023-03-20T17:43:43;100382.50;;;12.89;52.05
71299;BME280;59083;47.974;21.722;2023-03-20T17:46:45;100377.16;;;12.89;51.90
71299;BME280;59083;47.974;21.722;2023-03-20T17:49:47;100379.25;;;12.87;51.87
71299;BME280;59083;47.974;21.722;2023-03-20T17:52:48;100381.66;;;12.81;52.20
71299;BME280;59083;47.974;21.722;2023-03-20T17:55:51;100384.12;;;12.76;52.67
71299;BME280;59083;47.974;21.722;2023-03-20T17:58:52;100373.84;;;12.73;52.34
71299;BME280;59083;47.974;21.722;2023-03-20T18:01:53;100378.75;;;12.63;53.11